sensor_id;sensor_type;location;lat;lon;timestamp;P1;durP1;ratioP1;P2;durP2;ratioP2
69783;SDS011;57054;51.978;4.498;2023-08-21T00:01:00;3.78;;;1.55;;
69783;SDS011;57054;51.978;4.498;2023-08-21T00:03:26;2.97;;;1.60;;
69783;SDS011;57054;51.978;4.498;2023-08-21T00:05:52;3.75;;;1.45;;
69783;SDS011;57054;51.978;4.498;2023-08-21T00:08:17;2.83;;;1.10;;
69783;SDS011;57054;51.978;4.498;2023-08-21T00:10:42;2.72;;;1.75;;
69783;SDS011;57054;51.978;4.498;2023-08-21T00:13:08;2.50;;;1.40;;
69783;SDS011;57054;51.978;4.498;2023-08-21T00:15:33;4.15;;;1.38;;
69783;SDS011;57054;51.978;4.498;2023-08-21T00:17:59;2.63;;;1.17;;
69783;SDS011;57054;51.978;4.498;2023-08-21T00:20:25;1.60;;;1.25;;
69783;SDS011;57054;51.978;4.498;2023-08-21T00:22:51;2.30;;;1.38;;
69783;SDS011;57054;51.978;4.498;2023-08-21T00:25:16;1.98;;;1.20;;
69783;SDS011;57054;51.978;4.498;2023-08-21T00:27:42;1.67;;;1.23;;
69783;SDS011;57054;51.978;4.498;2023-08-21T00:30:07;3.22;;;1.30;;
69783;SDS011;57054;51.978;4.498;2023-08-21T00:32:33;2.30;;;1.20;;
69783;SDS011;57054;51.978;4.498;2023-08-21T00:34:59;2.58;;;1.42;;
69783;SDS011;57054;51.978;4.498;2023-08-21T00:37:24;1.23;;;1.13;;
69783;SDS011;57054;51.978;4.498;2023-08-21T00:39:49;5.75;;;1.20;;
69783;SDS011;57054;51.978;4.498;2023-08-21T00:42:15;2.10;;;1.50;;
69783;SDS011;57054;51.978;4.498;2023-08-21T00:44:40;1.55;;;1.10;;
69783;SDS011;57054;51.978;4.498;2023-08-21T00:47:06;1.85;;;1.15;;
69783;SDS011;57054;51.978;4.498;2023-08-21T00:49:31;3.88;;;1.30;;
69783;SDS011;57054;51.978;4.498;2023-08-21T00:51:57;2.10;;;1.30;;
69783;SDS011;57054;51.978;4.498;2023-08-21T00:54:26;1.70;;;1.23;;
69783;SDS011;57054;51.978;4.498;2023-08-21T00:56:52;3.22;;;1.40;;
69783;SDS011;57054;51.978;4.498;2023-08-21T00:59:18;4.00;;;1.48;;
69783;SDS011;57054;51.978;4.498;2023-08-21T01:01:45;4.00;;;1.85;;
69783;SDS011;57054;51.978;4.498;2023-08-21T01:04:10;3.10;;;1.40;;
69783;SDS011;57054;51.978;4.498;2023-08-21T01:06:36;2.25;;;1.63;;
69783;SDS011;57054;51.978;4.498;2023-08-21T01:09:03;2.70;;;1.30;;
69783;SDS011;57054;51.978;4.498;2023-08-21T01:11:41;2.03;;;1.25;;
69783;SDS011;57054;51.978;4.498;2023-08-21T01:14:20;2.65;;;1.30;;
69783;SDS011;57054;51.978;4.498;2023-08-21T01:16:47;2.20;;;1.20;;
69783;SDS011;57054;51.978;4.498;2023-08-21T01:19:41;3.28;;;1.10;;
69783;SDS011;57054;51.978;4.498;2023-08-21T01:22:07;3.17;;;1.30;;
69783;SDS011;57054;51.978;4.498;2023-08-21T01:24:33;2.00;;;1.23;;
69783;SDS011;57054;51.978;4.498;2023-08-21T01:26:59;2.65;;;1.27;;
69783;SDS011;57054;51.978;4.498;2023-08-21T01:29:25;2.65;;;1.50;;
69783;SDS011;57054;51.978;4.498;2023-08-21T01:32:37;2.40;;;1.30;;
69783;SDS011;57054;51.978;4.498;2023-08-21T01:34:55;4.40;;;1.83;;
69783;SDS011;57054;51.978;4.498;2023-08-21T01:37:21;3.17;;;1.13;;
69783;SDS011;57054;51.978;4.498;2023-08-21T01:39:47;2.78;;;1.27;;
69783;SDS011;57054;51.978;4.498;2023-08-21T01:42:12;2.85;;;1.20;;
69783;SDS011;57054;51.978;4.498;2023-08-21T01:44:38;4.05;;;1.30;;
69783;SDS011;57054;51.978;4.498;2023-08-21T01:47:03;2.78;;;1.20;;
69783;SDS011;57054;51.978;4.498;2023-08-21T01:49:29;5.93;;;1.48;;
69783;SDS011;57054;51.978;4.498;2023-08-21T01:51:54;2.63;;;1.38;;
69783;SDS011;57054;51.978;4.498;2023-08-21T01:54:19;3.05;;;1.38;;
69783;SDS011;57054;51.978;4.498;2023-08-21T01:56:45;2.78;;;1.23;;
69783;SDS011;57054;51.978;4.498;2023-08-21T01:59:10;3.95;;;1.30;;
69783;SDS011;57054;51.978;4.498;2023-08-21T02:01:36;2.72;;;1.40;;
69783;SDS011;57054;51.978;4.498;2023-08-21T02:04:01;4.40;;;1.20;;
69783;SDS011;57054;51.978;4.498;2023-08-21T02:06:26;1.42;;;1.20;;
69783;SDS011;57054;51.978;4.498;2023-08-21T02:08:52;2.83;;;1.50;;
69783;SDS011;57054;51.978;4.498;2023-08-21T02:11:17;1.65;;;1.10;;
69783;SDS011;57054;51.978;4.498;2023-08-21T02:13:44;3.85;;;1.40;;
69783;SDS011;57054;51.978;4.498;2023-08-21T02:16:09;3.35;;;1.27;;
69783;SDS011;57054;51.978;4.498;2023-08-21T02:18:35;1.95;;;1.35;;
69783;SDS011;57054;51.978;4.498;2023-08-21T02:21:00;5.13;;;1.90;;
69783;SDS011;57054;51.978;4.498;2023-08-21T02:23:26;2.63;;;1.65;;
69783;SDS011;57054;51.978;4.498;2023-08-21T02:25:51;4.13;;;1.00;;
69783;SDS011;57054;51.978;4.498;2023-08-21T02:28:17;3.67;;;1.40;;
69783;SDS011;57054;51.978;4.498;2023-08-21T02:30:42;2.90;;;1.20;;
69783;SDS011;57054;51.978;4.498;2023-08-21T02:33:08;3.35;;;1.20;;
69783;SDS011;57054;51.978;4.498;2023-08-21T02:35:33;2.63;;;1.10;;
69783;SDS011;57054;51.978;4.498;2023-08-21T02:37:59;2.92;;;1.40;;
69783;SDS011;57054;51.978;4.498;2023-08-21T02:40:24;2.83;;;1.38;;
69783;SDS011;57054;51.978;4.498;2023-08-21T02:42:50;2.35;;;1.27;;
69783;SDS011;57054;51.978;4.498;2023-08-21T02:45:15;3.60;;;1.58;;
69783;SDS011;57054;51.978;4.498;2023-08-21T02:47:41;3.67;;;1.35;;
69783;SDS011;57054;51.978;4.498;2023-08-21T02:50:09;2.30;;;1.30;;
69783;SDS011;57054;51.978;4.498;2023-08-21T02:52:35;2.38;;;1.35;;
69783;SDS011;57054;51.978;4.498;2023-08-21T02:55:01;2.58;;;1.52;;
69783;SDS011;57054;51.978;4.498;2023-08-21T02:57:28;1.30;;;1.13;;
69783;SDS011;57054;51.978;4.498;2023-08-21T02:59:54;2.55;;;1.10;;
69783;SDS011;57054;51.978;4.498;2023-08-21T03:02:20;2.28;;;1.63;;
69783;SDS011;57054;51.978;4.498;2023-08-21T03:04:46;2.58;;;1.40;;
69783;SDS011;57054;51.978;4.498;2023-08-21T03:07:11;3.97;;;1.20;;
69783;SDS011;57054;51.978;4.498;2023-08-21T03:09:37;3.63;;;1.60;;
69783;SDS011;57054;51.978;4.498;2023-08-21T03:12:04;1.90;;;1.27;;
69783;SDS011;57054;51.978;4.498;2023-08-21T03:14:29;2.78;;;1.45;;
69783;SDS011;57054;51.978;4.498;2023-08-21T03:16:55;5.68;;;1.33;;
69783;SDS011;57054;51.978;4.498;2023-08-21T03:19:20;1.98;;;1.38;;
69783;SDS011;57054;51.978;4.498;2023-08-21T03:21:46;2.65;;;1.27;;
69783;SDS011;57054;51.978;4.498;2023-08-21T03:24:11;2.03;;;1.17;;
69783;SDS011;57054;51.978;4.498;2023-08-21T03:26:36;3.72;;;1.20;;
69783;SDS011;57054;51.978;4.498;2023-08-21T03:29:02;2.55;;;1.30;;
69783;SDS011;57054;51.978;4.498;2023-08-21T03:31:27;2.72;;;1.30;;
69783;SDS011;57054;51.978;4.498;2023-08-21T03:33:54;4.88;;;1.40;;
69783;SDS011;57054;51.978;4.498;2023-08-21T03:36:19;2.38;;;1.50;;
69783;SDS011;57054;51.978;4.498;2023-08-21T03:38:45;1.60;;;1.33;;
69783;SDS011;57054;51.978;4.498;2023-08-21T03:41:10;2.95;;;1.48;;
69783;SDS011;57054;51.978;4.498;2023-08-21T03:43:36;2.63;;;1.90;;
69783;SDS011;57054;51.978;4.498;2023-08-21T03:46:01;2.13;;;1.30;;
69783;SDS011;57054;51.978;4.498;2023-08-21T03:48:27;1.67;;;1.30;;
69783;SDS011;57054;51.978;4.498;2023-08-21T03:50:52;2.63;;;1.40;;
69783;SDS011;57054;51.978;4.498;2023-08-21T03:53:17;1.38;;;1.15;;
69783;SDS011;57054;51.978;4.498;2023-08-21T03:55:43;2.30;;;1.38;;
69783;SDS011;57054;51.978;4.498;2023-08-21T03:58:09;2.33;;;1.38;;
69783;SDS011;57054;51.978;4.498;2023-08-21T04:00:34;2.53;;;1.60;;
69783;SDS011;57054;51.978;4.498;2023-08-21T04:02:59;3.80;;;1.70;;
69783;SDS011;57054;51.978;4.498;2023-08-21T04:05:25;2.58;;;1.60;;
69783;SDS011;57054;51.978;4.498;2023-08-21T04:07:51;3.03;;;1.50;;
69783;SDS011;57054;51.978;4.498;2023-08-21T04:10:17;1.35;;;1.10;;
69783;SDS011;57054;51.978;4.498;2023-08-21T04:12:42;4.60;;;1.65;;
69783;SDS011;57054;51.978;4.498;2023-08-21T04:15:08;1.92;;;1.20;;
69783;SDS011;57054;51.978;4.498;2023-08-21T04:17:34;1.77;;;1.58;;
69783;SDS011;57054;51.978;4.498;2023-08-21T04:19:59;1.60;;;1.30;;
69783;SDS011;57054;51.978;4.498;2023-08-21T04:22:24;2.35;;;1.40;;
69783;SDS011;57054;51.978;4.498;2023-08-21T04:24:50;4.25;;;1.60;;
69783;SDS011;57054;51.978;4.498;2023-08-21T04:27:15;3.63;;;1.42;;
69783;SDS011;57054;51.978;4.498;2023-08-21T04:29:40;6.93;;;1.70;;
69783;SDS011;57054;51.978;4.498;2023-08-21T04:32:06;1.58;;;1.42;;
69783;SDS011;57054;51.978;4.498;2023-08-21T04:34:32;1.92;;;1.25;;
69783;SDS011;57054;51.978;4.498;2023-08-21T04:36:58;2.35;;;1.75;;
69783;SDS011;57054;51.978;4.498;2023-08-21T04:39:23;2.85;;;1.85;;
69783;SDS011;57054;51.978;4.498;2023-08-21T04:41:49;2.80;;;1.60;;
69783;SDS011;57054;51.978;4.498;2023-08-21T04:44:14;5.50;;;1.80;;
69783;SDS011;57054;51.978;4.498;2023-08-21T04:46:40;2.45;;;1.80;;
69783;SDS011;57054;51.978;4.498;2023-08-21T04:49:05;3.08;;;1.77;;
69783;SDS011;57054;51.978;4.498;2023-08-21T04:51:30;3.53;;;1.55;;
69783;SDS011;57054;51.978;4.498;2023-08-21T04:53:56;3.60;;;1.80;;
69783;SDS011;57054;51.978;4.498;2023-08-21T04:56:22;5.55;;;1.85;;
69783;SDS011;57054;51.978;4.498;2023-08-21T04:58:47;3.20;;;2.13;;
69783;SDS011;57054;51.978;4.498;2023-08-21T05:01:12;3.17;;;1.45;;
69783;SDS011;57054;51.978;4.498;2023-08-21T05:03:38;6.57;;;1.70;;
69783;SDS011;57054;51.978;4.498;2023-08-21T05:06:03;1.45;;;1.35;;
69783;SDS011;57054;51.978;4.498;2023-08-21T05:08:29;7.20;;;1.77;;
69783;SDS011;57054;51.978;4.498;2023-08-21T05:10:57;2.85;;;1.80;;
69783;SDS011;57054;51.978;4.498;2023-08-21T05:13:24;2.72;;;1.88;;
69783;SDS011;57054;51.978;4.498;2023-08-21T05:15:51;4.07;;;2.20;;
69783;SDS011;57054;51.978;4.498;2023-08-21T05:18:20;3.13;;;1.80;;
69783;SDS011;57054;51.978;4.498;2023-08-21T05:20:46;3.17;;;1.60;;
69783;SDS011;57054;51.978;4.498;2023-08-21T05:23:12;3.00;;;1.83;;
69783;SDS011;57054;51.978;4.498;2023-08-21T05:25:37;2.08;;;1.65;;
69783;SDS011;57054;51.978;4.498;2023-08-21T05:28:03;6.43;;;2.60;;
69783;SDS011;57054;51.978;4.498;2023-08-21T05:30:29;5.57;;;2.42;;
69783;SDS011;57054;51.978;4.498;2023-08-21T05:32:55;4.70;;;2.13;;
69783;SDS011;57054;51.978;4.498;2023-08-21T05:35:20;4.35;;;2.40;;
69783;SDS011;57054;51.978;4.498;2023-08-21T05:37:46;3.20;;;2.10;;
69783;SDS011;57054;51.978;4.498;2023-08-21T05:40:11;4.20;;;2.40;;
69783;SDS011;57054;51.978;4.498;2023-08-21T05:42:37;4.57;;;2.33;;
69783;SDS011;57054;51.978;4.498;2023-08-21T05:45:03;12.18;;;2.92;;
69783;SDS011;57054;51.978;4.498;2023-08-21T05:47:30;5.22;;;2.33;;
69783;SDS011;57054;51.978;4.498;2023-08-21T05:49:55;7.05;;;2.17;;
69783;SDS011;57054;51.978;4.498;2023-08-21T05:52:21;3.40;;;2.20;;
69783;SDS011;57054;51.978;4.498;2023-08-21T05:54:47;2.63;;;2.28;;
69783;SDS011;57054;51.978;4.498;2023-08-21T05:57:13;3.58;;;2.20;;
69783;SDS011;57054;51.978;4.498;2023-08-21T05:59:42;5.85;;;2.40;;
69783;SDS011;57054;51.978;4.498;2023-08-21T06:02:09;3.08;;;2.08;;
69783;SDS011;57054;51.978;4.498;2023-08-21T06:04:35;5.43;;;2.33;;
69783;SDS011;57054;51.978;4.498;2023-08-21T06:07:02;5.07;;;2.05;;
69783;SDS011;57054;51.978;4.498;2023-08-21T06:09:28;3.88;;;2.25;;
69783;SDS011;57054;51.978;4.498;2023-08-21T06:11:54;4.65;;;2.50;;
69783;SDS011;57054;51.978;4.498;2023-08-21T06:14:20;4.20;;;1.90;;
69783;SDS011;57054;51.978;4.498;2023-08-21T06:16:53;2.38;;;2.17;;
69783;SDS011;57054;51.978;4.498;2023-08-21T06:19:18;3.17;;;1.85;;
69783;SDS011;57054;51.978;4.498;2023-08-21T06:21:44;7.40;;;2.30;;
69783;SDS011;57054;51.978;4.498;2023-08-21T06:24:09;2.08;;;1.88;;
69783;SDS011;57054;51.978;4.498;2023-08-21T06:26:35;2.42;;;2.13;;
69783;SDS011;57054;51.978;4.498;2023-08-21T06:29:00;4.07;;;2.10;;
69783;SDS011;57054;51.978;4.498;2023-08-21T06:31:25;3.50;;;2.35;;
69783;SDS011;57054;51.978;4.498;2023-08-21T06:33:51;2.38;;;2.17;;
69783;SDS011;57054;51.978;4.498;2023-08-21T06:36:16;6.35;;;2.70;;
69783;SDS011;57054;51.978;4.498;2023-08-21T06:38:41;3.05;;;1.92;;
69783;SDS011;57054;51.978;4.498;2023-08-21T06:41:07;3.58;;;2.20;;
69783;SDS011;57054;51.978;4.498;2023-08-21T06:43:33;2.22;;;2.03;;
69783;SDS011;57054;51.978;4.498;2023-08-21T06:45:58;4.68;;;2.20;;
69783;SDS011;57054;51.978;4.498;2023-08-21T06:48:23;5.10;;;2.70;;
69783;SDS011;57054;51.978;4.498;2023-08-21T06:50:50;2.35;;;1.88;;
69783;SDS011;57054;51.978;4.498;2023-08-21T06:53:15;5.13;;;2.40;;
69783;SDS011;57054;51.978;4.498;2023-08-21T06:55:41;8.85;;;2.72;;
69783;SDS011;57054;51.978;4.498;2023-08-21T06:58:06;4.63;;;2.53;;
69783;SDS011;57054;51.978;4.498;2023-08-21T07:00:32;5.13;;;2.13;;
69783;SDS011;57054;51.978;4.498;2023-08-21T07:05:25;5.20;;;2.10;;
69783;SDS011;57054;51.978;4.498;2023-08-21T07:07:51;6.63;;;2.47;;
69783;SDS011;57054;51.978;4.498;2023-08-21T07:10:16;8.45;;;2.83;;
69783;SDS011;57054;51.978;4.498;2023-08-21T07:12:42;13.63;;;3.08;;
69783;SDS011;57054;51.978;4.498;2023-08-21T07:15:07;10.38;;;2.78;;
69783;SDS011;57054;51.978;4.498;2023-08-21T07:17:33;7.35;;;2.50;;
69783;SDS011;57054;51.978;4.498;2023-08-21T07:19:59;6.60;;;2.40;;
69783;SDS011;57054;51.978;4.498;2023-08-21T07:22:29;4.03;;;1.90;;
69783;SDS011;57054;51.978;4.498;2023-08-21T07:24:54;6.82;;;2.75;;
69783;SDS011;57054;51.978;4.498;2023-08-21T07:27:19;8.60;;;2.35;;
69783;SDS011;57054;51.978;4.498;2023-08-21T07:29:45;5.82;;;1.90;;
69783;SDS011;57054;51.978;4.498;2023-08-21T07:32:10;7.05;;;2.15;;
69783;SDS011;57054;51.978;4.498;2023-08-21T07:34:36;7.65;;;2.35;;
69783;SDS011;57054;51.978;4.498;2023-08-21T07:37:01;6.57;;;2.33;;
69783;SDS011;57054;51.978;4.498;2023-08-21T07:39:26;4.20;;;2.00;;
69783;SDS011;57054;51.978;4.498;2023-08-21T07:41:52;6.13;;;1.52;;
69783;SDS011;57054;51.978;4.498;2023-08-21T07:44:18;9.07;;;2.78;;
69783;SDS011;57054;51.978;4.498;2023-08-21T07:46:44;5.85;;;2.45;;
69783;SDS011;57054;51.978;4.498;2023-08-21T07:49:09;6.82;;;2.00;;
69783;SDS011;57054;51.978;4.498;2023-08-21T07:51:35;10.10;;;3.38;;
69783;SDS011;57054;51.978;4.498;2023-08-21T07:54:01;10.43;;;3.30;;
69783;SDS011;57054;51.978;4.498;2023-08-21T07:56:26;7.88;;;2.88;;
69783;SDS011;57054;51.978;4.498;2023-08-21T07:58:51;11.35;;;3.10;;
69783;SDS011;57054;51.978;4.498;2023-08-21T08:01:17;9.82;;;2.67;;
69783;SDS011;57054;51.978;4.498;2023-08-21T08:03:42;6.05;;;2.13;;
69783;SDS011;57054;51.978;4.498;2023-08-21T08:06:08;8.02;;;3.47;;
69783;SDS011;57054;51.978;4.498;2023-08-21T08:08:33;8.32;;;3.00;;
69783;SDS011;57054;51.978;4.498;2023-08-21T08:11:02;9.43;;;3.30;;
69783;SDS011;57054;51.978;4.498;2023-08-21T08:13:29;5.50;;;2.50;;
69783;SDS011;57054;51.978;4.498;2023-08-21T08:15:54;7.90;;;2.50;;
69783;SDS011;57054;51.978;4.498;2023-08-21T08:18:20;4.22;;;2.63;;
69783;SDS011;57054;51.978;4.498;2023-08-21T08:20:45;3.85;;;2.35;;
69783;SDS011;57054;51.978;4.498;2023-08-21T08:23:10;6.78;;;2.60;;
69783;SDS011;57054;51.978;4.498;2023-08-21T08:25:36;7.15;;;2.28;;
69783;SDS011;57054;51.978;4.498;2023-08-21T08:28:01;4.55;;;2.40;;
69783;SDS011;57054;51.978;4.498;2023-08-21T08:30:27;9.10;;;2.30;;
69783;SDS011;57054;51.978;4.498;2023-08-21T08:32:53;4.90;;;2.45;;
69783;SDS011;57054;51.978;4.498;2023-08-21T08:35:19;5.65;;;2.13;;
69783;SDS011;57054;51.978;4.498;2023-08-21T08:37:44;8.35;;;2.53;;
69783;SDS011;57054;51.978;4.498;2023-08-21T08:40:13;5.05;;;2.45;;
69783;SDS011;57054;51.978;4.498;2023-08-21T08:42:38;7.28;;;2.95;;
69783;SDS011;57054;51.978;4.498;2023-08-21T08:45:04;6.70;;;2.40;;
69783;SDS011;57054;51.978;4.498;2023-08-21T08:47:31;3.92;;;2.00;;
69783;SDS011;57054;51.978;4.498;2023-08-21T08:49:58;14.47;;;2.20;;
69783;SDS011;57054;51.978;4.498;2023-08-21T08:52:26;5.40;;;2.08;;
69783;SDS011;57054;51.978;4.498;2023-08-21T08:54:53;5.50;;;1.85;;
69783;SDS011;57054;51.978;4.498;2023-08-21T08:57:20;4.90;;;1.83;;
69783;SDS011;57054;51.978;4.498;2023-08-21T08:59:46;8.32;;;2.78;;
69783;SDS011;57054;51.978;4.498;2023-08-21T09:02:11;7.93;;;2.28;;
69783;SDS011;57054;51.978;4.498;2023-08-21T09:04:36;8.00;;;2.08;;
69783;SDS011;57054;51.978;4.498;2023-08-21T09:07:06;7.45;;;2.22;;
69783;SDS011;57054;51.978;4.498;2023-08-21T09:09:39;5.28;;;1.40;;
69783;SDS011;57054;51.978;4.498;2023-08-21T09:12:14;6.93;;;1.80;;
69783;SDS011;57054;51.978;4.498;2023-08-21T09:14:40;7.45;;;2.40;;
69783;SDS011;57054;51.978;4.498;2023-08-21T09:17:08;5.40;;;1.95;;
69783;SDS011;57054;51.978;4.498;2023-08-21T09:19:33;9.25;;;1.88;;
69783;SDS011;57054;51.978;4.498;2023-08-21T09:21:59;6.45;;;1.83;;
69783;SDS011;57054;51.978;4.498;2023-08-21T09:24:33;4.72;;;1.80;;
69783;SDS011;57054;51.978;4.498;2023-08-21T09:26:59;3.53;;;1.50;;
69783;SDS011;57054;51.978;4.498;2023-08-21T09:29:26;5.80;;;1.30;;
69783;SDS011;57054;51.978;4.498;2023-08-21T09:31:55;9.20;;;1.92;;
69783;SDS011;57054;51.978;4.498;2023-08-21T09:34:21;6.65;;;2.42;;
69783;SDS011;57054;51.978;4.498;2023-08-21T09:36:46;4.15;;;1.95;;
69783;SDS011;57054;51.978;4.498;2023-08-21T09:39:19;4.50;;;1.58;;
69783;SDS011;57054;51.978;4.498;2023-08-21T09:41:55;4.93;;;1.30;;
69783;SDS011;57054;51.978;4.498;2023-08-21T09:44:21;3.70;;;1.40;;
69783;SDS011;57054;51.978;4.498;2023-08-21T09:46:50;7.40;;;1.80;;
69783;SDS011;57054;51.978;4.498;2023-08-21T09:49:15;5.60;;;1.40;;
69783;SDS011;57054;51.978;4.498;2023-08-21T09:51:42;2.08;;;1.30;;
69783;SDS011;57054;51.978;4.498;2023-08-21T09:54:10;5.07;;;1.55;;
69783;SDS011;57054;51.978;4.498;2023-08-21T09:56:36;6.53;;;1.83;;
69783;SDS011;57054;51.978;4.498;2023-08-21T09:59:02;2.72;;;1.30;;
69783;SDS011;57054;51.978;4.498;2023-08-21T10:01:28;3.55;;;1.23;;
69783;SDS011;57054;51.978;4.498;2023-08-21T10:03:57;3.78;;;1.55;;
69783;SDS011;57054;51.978;4.498;2023-08-21T10:06:27;3.30;;;1.65;;
69783;SDS011;57054;51.978;4.498;2023-08-21T10:08:54;4.80;;;1.70;;
69783;SDS011;57054;51.978;4.498;2023-08-21T10:11:21;3.17;;;1.20;;
69783;SDS011;57054;51.978;4.498;2023-08-21T10:13:48;5.18;;;1.52;;
69783;SDS011;57054;51.978;4.498;2023-08-21T10:16:16;6.33;;;1.30;;
69783;SDS011;57054;51.978;4.498;2023-08-21T10:18:44;1.50;;;1.00;;
69783;SDS011;57054;51.978;4.498;2023-08-21T10:23:40;7.18;;;2.40;;
69783;SDS011;57054;51.978;4.498;2023-08-21T10:26:07;5.70;;;1.92;;
69783;SDS011;57054;51.978;4.498;2023-08-21T10:28:41;3.55;;;1.80;;
69783;SDS011;57054;51.978;4.498;2023-08-21T10:33:55;5.70;;;2.15;;
69783;SDS011;57054;51.978;4.498;2023-08-21T10:39:23;4.22;;;1.52;;
69783;SDS011;57054;51.978;4.498;2023-08-21T10:41:53;3.20;;;1.88;;
69783;SDS011;57054;51.978;4.498;2023-08-21T10:49:52;4.78;;;1.70;;
69783;SDS011;57054;51.978;4.498;2023-08-21T10:52:31;4.25;;;1.60;;
69783;SDS011;57054;51.978;4.498;2023-08-21T10:55:01;4.78;;;1.80;;
69783;SDS011;57054;51.978;4.498;2023-08-21T10:57:31;4.32;;;1.85;;
69783;SDS011;57054;51.978;4.498;2023-08-21T10:59:58;2.90;;;1.63;;
69783;SDS011;57054;51.978;4.498;2023-08-21T11:02:25;2.73;;;1.17;;
69783;SDS011;57054;51.978;4.498;2023-08-21T11:04:54;2.58;;;1.40;;
69783;SDS011;57054;51.978;4.498;2023-08-21T11:07:19;2.47;;;1.38;;
69783;SDS011;57054;51.978;4.498;2023-08-21T11:09:46;4.78;;;1.35;;
69783;SDS011;57054;51.978;4.498;2023-08-21T11:12:13;4.20;;;1.63;;
69783;SDS011;57054;51.978;4.498;2023-08-21T11:14:43;2.15;;;1.20;;
69783;SDS011;57054;51.978;4.498;2023-08-21T11:17:09;2.53;;;1.20;;
69783;SDS011;57054;51.978;4.498;2023-08-21T11:19:35;3.80;;;1.30;;
69783;SDS011;57054;51.978;4.498;2023-08-21T11:22:01;2.45;;;1.60;;
69783;SDS011;57054;51.978;4.498;2023-08-21T11:27:03;2.17;;;1.27;;
69783;SDS011;57054;51.978;4.498;2023-08-21T11:29:31;2.90;;;1.15;;
69783;SDS011;57054;51.978;4.498;2023-08-21T11:32:01;6.75;;;1.30;;
69783;SDS011;57054;51.978;4.498;2023-08-21T11:34:28;2.92;;;1.25;;
69783;SDS011;57054;51.978;4.498;2023-08-21T11:36:53;6.72;;;1.30;;
69783;SDS011;57054;51.978;4.498;2023-08-21T11:39:19;2.63;;;1.13;;
69783;SDS011;57054;51.978;4.498;2023-08-21T11:41:57;3.03;;;1.13;;
69783;SDS011;57054;51.978;4.498;2023-08-21T11:44:23;4.05;;;1.48;;
69783;SDS011;57054;51.978;4.498;2023-08-21T11:46:52;8.68;;;1.30;;
69783;SDS011;57054;51.978;4.498;2023-08-21T11:49:20;2.78;;;1.15;;
69783;SDS011;57054;51.978;4.498;2023-08-21T11:51:47;2.00;;;1.10;;
69783;SDS011;57054;51.978;4.498;2023-08-21T11:54:13;2.03;;;1.45;;
69783;SDS011;57054;51.978;4.498;2023-08-21T11:56:38;2.90;;;1.40;;
69783;SDS011;57054;51.978;4.498;2023-08-21T11:59:06;6.72;;;1.92;;
69783;SDS011;57054;51.978;4.498;2023-08-21T12:01:35;3.03;;;1.55;;
69783;SDS011;57054;51.978;4.498;2023-08-21T12:04:00;3.95;;;1.42;;
69783;SDS011;57054;51.978;4.498;2023-08-21T12:06:26;3.33;;;1.48;;
69783;SDS011;57054;51.978;4.498;2023-08-21T12:08:52;3.30;;;1.45;;
69783;SDS011;57054;51.978;4.498;2023-08-21T12:11:17;2.65;;;1.23;;
69783;SDS011;57054;51.978;4.498;2023-08-21T12:21:35;6.22;;;1.33;;
69783;SDS011;57054;51.978;4.498;2023-08-21T12:34:37;4.03;;;1.27;;
69783;SDS011;57054;51.978;4.498;2023-08-21T12:51:27;2.55;;;1.10;;
69783;SDS011;57054;51.978;4.498;2023-08-21T12:54:55;3.20;;;1.00;;
69783;SDS011;57054;51.978;4.498;2023-08-21T13:01:14;3.25;;;1.08;;
69783;SDS011;57054;51.978;4.498;2023-08-21T13:04:01;3.72;;;1.33;;
69783;SDS011;57054;51.978;4.498;2023-08-21T13:06:48;2.63;;;1.45;;
69783;SDS011;57054;51.978;4.498;2023-08-21T13:10:05;2.88;;;1.15;;
69783;SDS011;57054;51.978;4.498;2023-08-21T13:13:04;4.85;;;1.58;;
69783;SDS011;57054;51.978;4.498;2023-08-21T13:16:29;6.93;;;1.27;;
69783;SDS011;57054;51.978;4.498;2023-08-21T13:19:08;6.90;;;1.30;;
69783;SDS011;57054;51.978;4.498;2023-08-21T13:21:45;4.13;;;1.17;;
69783;SDS011;57054;51.978;4.498;2023-08-21T13:24:32;4.30;;;1.10;;
69783;SDS011;57054;51.978;4.498;2023-08-21T13:27:45;2.30;;;1.15;;
69783;SDS011;57054;51.978;4.498;2023-08-21T13:30:41;4.35;;;1.55;;
69783;SDS011;57054;51.978;4.498;2023-08-21T13:33:46;4.25;;;1.75;;
69783;SDS011;57054;51.978;4.498;2023-08-21T13:37:24;4.75;;;1.70;;
69783;SDS011;57054;51.978;4.498;2023-08-21T13:40:40;3.72;;;1.40;;
69783;SDS011;57054;51.978;4.498;2023-08-21T13:43:48;3.55;;;1.38;;
69783;SDS011;57054;51.978;4.498;2023-08-21T13:46:52;2.67;;;1.20;;
69783;SDS011;57054;51.978;4.498;2023-08-21T13:49:52;8.43;;;1.40;;
69783;SDS011;57054;51.978;4.498;2023-08-21T13:52:46;3.58;;;1.70;;
69783;SDS011;57054;51.978;4.498;2023-08-21T13:55:22;2.30;;;1.60;;
69783;SDS011;57054;51.978;4.498;2023-08-21T13:58:19;2.08;;;1.48;;
69783;SDS011;57054;51.978;4.498;2023-08-21T14:01:16;2.03;;;1.50;;
69783;SDS011;57054;51.978;4.498;2023-08-21T14:04:31;2.97;;;1.48;;
69783;SDS011;57054;51.978;4.498;2023-08-21T14:07:46;1.30;;;1.17;;
69783;SDS011;57054;51.978;4.498;2023-08-21T14:15:31;7.38;;;1.63;;
69783;SDS011;57054;51.978;4.498;2023-08-21T14:18:28;4.22;;;1.67;;
69783;SDS011;57054;51.978;4.498;2023-08-21T14:35:42;2.42;;;1.40;;
69783;SDS011;57054;51.978;4.498;2023-08-21T15:31:42;2.28;;;1.00;;
69783;SDS011;57054;51.978;4.498;2023-08-21T15:34:08;1.55;;;1.20;;
69783;SDS011;57054;51.978;4.498;2023-08-21T15:36:34;1.95;;;1.08;;
69783;SDS011;57054;51.978;4.498;2023-08-21T15:38:59;2.05;;;1.15;;
69783;SDS011;57054;51.978;4.498;2023-08-21T15:41:25;1.52;;;0.95;;
69783;SDS011;57054;51.978;4.498;2023-08-21T15:43:50;2.72;;;1.08;;
69783;SDS011;57054;51.978;4.498;2023-08-21T15:46:17;1.27;;;0.85;;
69783;SDS011;57054;51.978;4.498;2023-08-21T15:48:42;2.67;;;1.13;;
69783;SDS011;57054;51.978;4.498;2023-08-21T15:51:07;2.53;;;1.23;;
69783;SDS011;57054;51.978;4.498;2023-08-21T15:53:33;1.58;;;1.17;;
69783;SDS011;57054;51.978;4.498;2023-08-21T15:55:58;3.25;;;1.42;;
69783;SDS011;57054;51.978;4.498;2023-08-21T15:58:23;4.57;;;1.30;;
69783;SDS011;57054;51.978;4.498;2023-08-21T16:00:49;1.15;;;1.00;;
69783;SDS011;57054;51.978;4.498;2023-08-21T16:03:15;4.07;;;1.10;;
69783;SDS011;57054;51.978;4.498;2023-08-21T16:05:41;1.15;;;0.90;;
69783;SDS011;57054;51.978;4.498;2023-08-21T16:08:06;1.23;;;1.02;;
69783;SDS011;57054;51.978;4.498;2023-08-21T16:10:31;2.30;;;1.30;;
69783;SDS011;57054;51.978;4.498;2023-08-21T16:12:57;3.38;;;1.13;;
69783;SDS011;57054;51.978;4.498;2023-08-21T16:15:22;3.92;;;1.13;;
69783;SDS011;57054;51.978;4.498;2023-08-21T16:17:48;2.70;;;1.25;;
69783;SDS011;57054;51.978;4.498;2023-08-21T16:20:13;2.13;;;1.20;;
69783;SDS011;57054;51.978;4.498;2023-08-21T16:22:40;1.65;;;1.00;;
69783;SDS011;57054;51.978;4.498;2023-08-21T16:25:06;7.45;;;1.40;;
69783;SDS011;57054;51.978;4.498;2023-08-21T16:27:32;3.20;;;1.25;;
69783;SDS011;57054;51.978;4.498;2023-08-21T16:29:57;1.58;;;1.00;;
69783;SDS011;57054;51.978;4.498;2023-08-21T16:32:23;2.88;;;1.25;;
69783;SDS011;57054;51.978;4.498;2023-08-21T16:34:48;1.85;;;1.00;;
69783;SDS011;57054;51.978;4.498;2023-08-21T16:37:16;2.45;;;1.05;;
69783;SDS011;57054;51.978;4.498;2023-08-21T16:39:41;1.83;;;1.10;;
69783;SDS011;57054;51.978;4.498;2023-08-21T16:42:07;5.88;;;1.73;;
69783;SDS011;57054;51.978;4.498;2023-08-21T16:44:32;1.98;;;0.90;;
69783;SDS011;57054;51.978;4.498;2023-08-21T16:46:58;1.80;;;1.20;;
69783;SDS011;57054;51.978;4.498;2023-08-21T16:49:23;2.63;;;1.02;;
69783;SDS011;57054;51.978;4.498;2023-08-21T16:51:48;2.80;;;1.50;;
69783;SDS011;57054;51.978;4.498;2023-08-21T16:54:14;2.28;;;1.30;;
69783;SDS011;57054;51.978;4.498;2023-08-21T16:56:39;1.15;;;0.98;;
69783;SDS011;57054;51.978;4.498;2023-08-21T16:59:05;1.88;;;1.00;;
69783;SDS011;57054;51.978;4.498;2023-08-21T17:01:30;1.98;;;0.90;;
69783;SDS011;57054;51.978;4.498;2023-08-21T17:03:55;2.45;;;1.38;;
69783;SDS011;57054;51.978;4.498;2023-08-21T17:06:21;2.28;;;1.13;;